createdAt,value
2018-06-08T00:01:25.296Z,100742.55
2018-06-08T00:03:54.471Z,100738.40
2018-06-08T00:06:23.558Z,100739.97
2018-06-08T00:08:52.669Z,100734.03
2018-06-08T00:11:21.756Z,100737.22
2018-06-08T00:13:50.840Z,100738.31
2018-06-08T00:16:19.959Z,100734.80
2018-06-08T00:18:49.043Z,100734.18
2018-06-08T00:21:18.152Z,100732.33
2018-06-08T00:23:47.232Z,100726.06
2018-06-08T00:26:16.424Z,100720.11
2018-06-08T00:28:45.518Z,100727.03
2018-06-08T00:31:14.625Z,100721.29
2018-06-08T00:33:43.718Z,100731.95
2018-06-08T00:36:12.824Z,100723.80
2018-06-08T00:38:42.340Z,100716.79
2018-06-08T00:41:11.469Z,100720.77
2018-06-08T00:43:40.568Z,100715.52
2018-06-08T00:46:09.684Z,100717.31
2018-06-08T00:48:38.784Z,100723.52
2018-06-08T00:51:07.893Z,100717.52
2018-06-08T00:53:36.981Z,100720.23
2018-06-08T00:56:06.148Z,100721.11
2018-06-08T00:58:35.240Z,100717.23
2018-06-08T01:01:04.367Z,100712.91
2018-06-08T01:03:33.450Z,100715.58
2018-06-08T01:06:02.560Z,100717.78
2018-06-08T01:08:31.644Z,100715.76
2018-06-08T01:11:00.748Z,100709.56
2018-06-08T01:13:29.845Z,100704.31
2018-06-08T01:15:58.958Z,100702.55
2018-06-08T01:18:28.043Z,100700.55
2018-06-08T01:20:57.164Z,100696.72
2018-06-08T01:23:26.248Z,100699.25
2018-06-08T01:25:55.356Z,100687.75
2018-06-08T01:28:24.444Z,100695.73
2018-06-08T01:30:53.552Z,100697.13
2018-06-08T01:33:22.656Z,100697.58
2018-06-08T01:35:51.769Z,100697.13
2018-06-08T01:38:20.860Z,100701.52
2018-06-08T01:40:49.985Z,100698.70
2018-06-08T01:43:19.057Z,100700.08
2018-06-08T01:45:48.152Z,100705.19
2018-06-08T01:48:17.240Z,100707.59
2018-06-08T01:50:46.340Z,100699.67
2018-06-08T01:53:15.409Z,100704.45
2018-06-08T01:55:44.512Z,100704.00
2018-06-08T01:58:13.587Z,100706.34
2018-06-08T02:00:42.688Z,100713.71
2018-06-08T02:03:11.780Z,100699.20
2018-06-08T02:05:40.881Z,100714.20
2018-06-08T02:08:09.960Z,100714.23
2018-06-08T02:10:39.073Z,100715.97
2018-06-08T02:13:08.151Z,100698.78
2018-06-08T02:15:37.251Z,100715.45
2018-06-08T02:18:06.340Z,100717.58
2018-06-08T02:20:35.436Z,100722.84
2018-06-08T02:23:04.528Z,100715.94
2018-06-08T02:25:33.632Z,100715.52
2018-06-08T02:28:02.793Z,100716.81
2018-06-08T02:30:31.872Z,100714.34
2018-06-08T02:33:00.948Z,100712.67
2018-06-08T02:35:30.053Z,100714.57
2018-06-08T02:37:59.120Z,100712.45
2018-06-08T02:40:28.219Z,100705.27
2018-06-08T02:42:57.324Z,100703.58
2018-06-08T02:45:26.409Z,100707.13
2018-06-08T02:47:55.508Z,100714.42
2018-06-08T02:50:24.601Z,100707.95
2018-06-08T02:52:53.696Z,100705.84
2018-06-08T02:55:22.776Z,100703.19
2018-06-08T02:57:51.884Z,100709.44
2018-06-08T03:00:20.977Z,100712.85
2018-06-08T03:02:50.089Z,100705.63
2018-06-08T03:05:19.216Z,100709.52
2018-06-08T03:07:48.277Z,100702.16
2018-06-08T03:10:17.352Z,100706.91
2018-06-08T03:12:46.460Z,100698.47
2018-06-08T03:15:15.546Z,100698.89
2018-06-08T03:17:44.657Z,100701.21
2018-06-08T03:20:13.740Z,100692.56
2018-06-08T03:22:42.844Z,100699.78
2018-06-08T03:25:11.925Z,100701.70
2018-06-08T03:27:41.028Z,100703.33
2018-06-08T03:30:10.122Z,100713.55
2018-06-08T03:32:39.264Z,100719.95
2018-06-08T03:35:08.344Z,100716.43
2018-06-08T03:37:37.456Z,100713.45
2018-06-08T03:40:06.560Z,100714.00
2018-06-08T03:42:35.669Z,100718.73
2018-06-08T03:45:05.026Z,100710.01
2018-06-08T03:47:34.148Z,100714.09
2018-06-08T03:50:03.240Z,100714.48
2018-06-08T03:52:32.346Z,100715.21
2018-06-08T03:55:01.432Z,100712.60
2018-06-08T03:57:30.532Z,100718.89
2018-06-08T03:59:59.625Z,100731.30
2018-06-08T04:02:28.744Z,100711.55
2018-06-08T04:04:57.793Z,100715.76
2018-06-08T04:07:26.885Z,100718.87
2018-06-08T04:09:55.951Z,100718.28
2018-06-08T04:12:25.108Z,100712.84
2018-06-08T04:14:54.187Z,100716.02
2018-06-08T04:17:23.323Z,100723.91
2018-06-08T04:19:52.410Z,100713.54
2018-06-08T04:22:21.504Z,100726.84
2018-06-08T04:24:50.572Z,100726.53
2018-06-08T04:27:19.664Z,100727.12
2018-06-08T04:29:48.748Z,100719.02
2018-06-08T04:32:17.849Z,100731.68
2018-06-08T04:34:46.928Z,100732.30
2018-06-08T04:37:16.028Z,100737.00
2018-06-08T04:39:45.121Z,100723.65
2018-06-08T04:42:14.240Z,100732.37
2018-06-08T04:44:43.324Z,100734.56
2018-06-08T04:47:12.432Z,100735.16
2018-06-08T04:49:41.508Z,100740.25
2018-06-08T04:52:10.612Z,100738.08
2018-06-08T04:54:39.697Z,100742.44
2018-06-08T04:57:08.791Z,100745.00
2018-06-08T04:59:37.867Z,100746.58
2018-06-08T05:02:07.002Z,100747.38
2018-06-08T05:04:36.116Z,100746.03
2018-06-08T05:07:05.541Z,100746.08
2018-06-08T05:09:34.635Z,100752.16
2018-06-08T05:12:03.771Z,100753.73
2018-06-08T05:14:32.864Z,100753.30
2018-06-08T05:17:01.992Z,100758.27
2018-06-08T05:19:31.190Z,100758.90
2018-06-08T05:22:00.293Z,100759.34
2018-06-08T05:24:29.505Z,100751.75
2018-06-08T05:26:58.592Z,100754.90
2018-06-08T05:29:27.733Z,100762.42
2018-06-08T05:31:56.829Z,100758.19
2018-06-08T05:34:25.994Z,100763.47
2018-06-08T05:36:55.089Z,100766.92
2018-06-08T05:39:24.217Z,100763.09
2018-06-08T05:41:53.327Z,100764.49
2018-06-08T05:44:22.445Z,100768.81
2018-06-08T05:46:51.549Z,100771.66
2018-06-08T05:49:20.672Z,100776.84
2018-06-08T05:51:49.772Z,100772.23
2018-06-08T05:54:18.937Z,100773.56
2018-06-08T05:56:47.985Z,100773.83
2018-06-08T05:59:17.107Z,100764.36
2018-06-08T06:01:46.200Z,100771.95
2018-06-08T06:04:15.336Z,100775.73
2018-06-08T06:06:44.437Z,100774.30
2018-06-08T06:09:13.547Z,100771.49
2018-06-08T06:11:42.649Z,100775.18
2018-06-08T06:14:11.764Z,100774.45
2018-06-08T06:16:40.852Z,100774.19
2018-06-08T06:19:09.960Z,100772.53
2018-06-08T06:21:39.058Z,100774.61
2018-06-08T06:24:08.196Z,100772.53
2018-06-08T06:26:37.327Z,100770.90
2018-06-08T06:29:06.447Z,100776.27
2018-06-08T06:31:35.544Z,100771.69
2018-06-08T06:34:04.653Z,100781.73
2018-06-08T06:36:33.741Z,100780.84
2018-06-08T06:39:02.920Z,100784.28
2018-06-08T06:41:32.040Z,100780.42
2018-06-08T06:44:01.156Z,100782.98
2018-06-08T06:46:30.691Z,100781.91
2018-06-08T06:48:59.808Z,100779.17
2018-06-08T06:51:28.893Z,100774.45
2018-06-08T06:53:58.005Z,100773.78
2018-06-08T06:56:27.092Z,100773.05
2018-06-08T06:58:56.208Z,100769.19
2018-06-08T07:01:25.313Z,100770.59
2018-06-08T07:03:54.485Z,100769.51
2018-06-08T07:06:23.632Z,100767.34
2018-06-08T07:08:52.773Z,100770.10
2018-06-08T07:11:21.860Z,100769.33
2018-06-08T07:13:50.993Z,100769.92
2018-06-08T07:16:20.076Z,100772.72
2018-06-08T07:18:49.516Z,100766.41
2018-06-08T07:21:18.601Z,100768.38
2018-06-08T07:23:47.723Z,100769.73
2018-06-08T07:26:16.824Z,100773.05
2018-06-08T07:28:45.957Z,100770.21
2018-06-08T07:31:15.049Z,100769.43
2018-06-08T07:33:44.168Z,100770.78
2018-06-08T07:36:13.313Z,100769.19
2018-06-08T07:38:42.416Z,100772.16
2018-06-08T07:41:11.544Z,100779.95
2018-06-08T07:43:40.673Z,100779.69
2018-06-08T07:46:10.128Z,100780.49
2018-06-08T07:48:39.251Z,100776.31
2018-06-08T07:51:08.357Z,100772.27
2018-06-08T07:53:37.493Z,100771.66
2018-06-08T07:56:06.591Z,100770.02
2018-06-08T07:58:35.712Z,100772.04
2018-06-08T08:01:04.797Z,100768.17
2018-06-08T08:03:33.892Z,100771.89
2018-06-08T08:06:03.027Z,100773.53
2018-06-08T08:08:32.089Z,100769.27
2018-06-08T08:11:01.261Z,100768.55
2018-06-08T08:13:30.374Z,100767.12
2018-06-08T08:15:59.489Z,100769.95
2018-06-08T08:18:28.585Z,100767.12
2018-06-08T08:20:57.700Z,100767.53
2018-06-08T08:23:26.805Z,100765.64
2018-06-08T08:25:55.929Z,100765.20
2018-06-08T08:28:25.041Z,100769.58
2018-06-08T08:30:54.177Z,100774.93
2018-06-08T08:33:23.278Z,100768.94
2018-06-08T08:38:33.304Z,100764.48
2018-06-08T08:41:02.456Z,100779.15
2018-06-08T08:43:31.574Z,100774.64
2018-06-08T08:46:00.696Z,100770.34
2018-06-08T08:48:29.793Z,100762.87
2018-06-08T08:50:58.917Z,100773.22
2018-06-08T08:53:28.021Z,100776.59
2018-06-08T08:55:57.160Z,100771.16
2018-06-08T08:58:26.293Z,100777.16
2018-06-08T09:00:55.412Z,100771.27
2018-06-08T09:03:24.500Z,100775.45
2018-06-08T09:05:53.653Z,100777.73
2018-06-08T09:08:22.761Z,100772.80
2018-06-08T09:10:51.884Z,100775.38
2018-06-08T09:13:21.017Z,100775.23
2018-06-08T09:15:50.141Z,100764.38
2018-06-08T09:18:19.248Z,100764.80
2018-06-08T09:20:48.361Z,100768.74
2018-06-08T09:23:17.464Z,100766.27
2018-06-08T09:25:46.592Z,100761.17
2018-06-08T09:28:25.440Z,100765.53
2018-06-08T09:30:54.561Z,100762.52
2018-06-08T09:33:23.657Z,100764.94
2018-06-08T09:35:52.761Z,100764.50
2018-06-08T09:38:22.156Z,100761.25
2018-06-08T09:40:51.280Z,100758.96
2018-06-08T09:43:20.375Z,100755.95
2018-06-08T09:45:49.476Z,100755.91
2018-06-08T09:48:18.581Z,100752.13
2018-06-08T09:50:47.692Z,100753.06
2018-06-08T09:53:16.772Z,100748.81
2018-06-08T09:55:45.897Z,100751.70
2018-06-08T09:58:14.979Z,100750.23
2018-06-08T10:00:44.116Z,100745.87
2018-06-08T10:03:13.256Z,100753.34
2018-06-08T10:05:42.363Z,100752.83
2018-06-08T10:08:11.480Z,100748.61
2018-06-08T10:10:40.580Z,100746.19
2018-06-08T10:13:09.689Z,100748.23
2018-06-08T10:15:38.845Z,100745.56
2018-06-08T10:18:07.983Z,100741.28
2018-06-08T10:20:37.084Z,100740.83
2018-06-08T10:23:06.208Z,100735.30
2018-06-08T10:25:35.303Z,100729.39
2018-06-08T10:28:04.426Z,100736.27
2018-06-08T10:30:34.260Z,100732.23
2018-06-08T10:33:03.360Z,100729.63
2018-06-08T10:35:32.468Z,100728.85
2018-06-08T10:38:01.572Z,100726.61
2018-06-08T10:40:30.695Z,100726.62
2018-06-08T10:42:59.787Z,100727.88
2018-06-08T10:45:28.865Z,100730.31
2018-06-08T10:47:57.964Z,100726.37
2018-06-08T10:50:27.053Z,100719.74
2018-06-08T10:52:56.182Z,100720.06
2018-06-08T10:55:26.256Z,100717.80
2018-06-08T10:57:55.371Z,100721.48
2018-06-08T11:00:24.475Z,100716.13
2018-06-08T11:02:53.600Z,100714.54
2018-06-08T11:05:22.721Z,100706.91
2018-06-08T11:07:51.832Z,100713.84
2018-06-08T11:10:20.933Z,100708.93
2018-06-08T11:12:50.129Z,100711.21
2018-06-08T11:15:19.212Z,100708.42
2018-06-08T11:17:48.360Z,100701.82
2018-06-08T11:20:18.281Z,100697.11
2018-06-08T11:22:47.397Z,100699.28
2018-06-08T11:25:16.505Z,100689.48
2018-06-08T11:27:45.641Z,100687.31
2018-06-08T11:30:14.736Z,100687.57
2018-06-08T11:32:43.841Z,100686.25
2018-06-08T11:35:12.952Z,100680.89
2018-06-08T11:37:42.040Z,100675.46
2018-06-08T11:40:11.174Z,100667.77
2018-06-08T11:42:40.259Z,100667.27
2018-06-08T11:45:09.563Z,100659.10
2018-06-08T11:47:38.649Z,100653.75
2018-06-08T11:50:07.756Z,100650.05
2018-06-08T11:52:36.832Z,100643.25
2018-06-08T11:55:05.961Z,100641.81
2018-06-08T11:57:35.056Z,100637.43
2018-06-08T12:00:04.531Z,100629.33
2018-06-08T12:02:33.604Z,100631.91
2018-06-08T12:05:02.701Z,100632.47
2018-06-08T12:07:31.776Z,100632.80
2018-06-08T12:10:01.624Z,100633.36
2018-06-08T12:12:30.727Z,100637.69
2018-06-08T12:14:59.832Z,100641.66
2018-06-08T12:17:28.908Z,100641.70
2018-06-08T12:19:58.049Z,100651.33
2018-06-08T12:22:27.120Z,100655.34
2018-06-08T12:24:56.391Z,100657.62
2018-06-08T12:27:25.473Z,100657.32
2018-06-08T12:29:54.638Z,100658.55
2018-06-08T12:32:23.671Z,100660.03
2018-06-08T12:34:52.871Z,100649.72
2018-06-08T12:37:21.972Z,100646.60
2018-06-08T12:39:51.073Z,100640.77
2018-06-08T12:42:20.250Z,100638.62
2018-06-08T12:44:49.349Z,100641.51
2018-06-08T12:47:18.461Z,100644.80
2018-06-08T12:49:47.570Z,100641.79
2018-06-08T12:52:16.800Z,100649.98
2018-06-08T12:54:46.033Z,100661.63
2018-06-08T12:57:15.161Z,100680.54
2018-06-08T12:59:44.371Z,100685.47
2018-06-08T13:02:13.532Z,100686.17
2018-06-08T13:04:42.640Z,100687.46
2018-06-08T13:07:11.771Z,100676.73
2018-06-08T13:09:40.865Z,100680.51
2018-06-08T13:12:09.992Z,100672.64
2018-06-08T13:14:39.105Z,100675.11
2018-06-08T13:17:08.342Z,100676.65
2018-06-08T13:19:37.476Z,100676.20
2018-06-08T13:22:06.581Z,100673.08
2018-06-08T13:24:35.679Z,100670.45
2018-06-08T13:27:04.929Z,100669.25
2018-06-08T13:29:34.237Z,100678.21
2018-06-08T13:32:03.349Z,100698.94
2018-06-08T13:34:32.537Z,100704.04
2018-06-08T13:37:01.821Z,100709.03
2018-06-08T13:39:31.087Z,100715.95
2018-06-08T13:42:00.175Z,100716.34
2018-06-08T13:44:29.309Z,100712.72
2018-06-08T13:46:58.511Z,100712.65
2018-06-08T13:49:27.664Z,100705.73
2018-06-08T13:51:56.769Z,100702.33
2018-06-08T13:54:25.909Z,100699.53
2018-06-08T13:56:55.012Z,100706.61
2018-06-08T13:59:24.197Z,100707.21
2018-06-08T14:01:53.296Z,100710.02
2018-06-08T14:04:22.413Z,100714.56
2018-06-08T14:06:51.500Z,100724.50
2018-06-08T14:09:20.638Z,100722.13
2018-06-08T14:11:50.765Z,100719.73
2018-06-08T14:14:19.993Z,100717.86
2018-06-08T14:16:49.247Z,100723.52
2018-06-08T14:19:19.061Z,100727.00
2018-06-08T14:21:50.136Z,100724.23
2018-06-08T14:24:19.864Z,100721.61
2018-06-08T14:26:49.075Z,100717.72
2018-06-08T14:29:18.232Z,100713.11
2018-06-08T14:31:47.406Z,100717.86
2018-06-08T14:34:16.541Z,100717.08
2018-06-08T14:36:45.842Z,100720.55
2018-06-08T14:39:14.957Z,100717.37
2018-06-08T14:41:44.068Z,100722.42
2018-06-08T14:44:13.204Z,100725.31
2018-06-08T14:46:42.767Z,100731.53
2018-06-08T14:49:12.476Z,100733.03
2018-06-08T14:51:41.568Z,100736.03
2018-06-08T14:54:10.760Z,100736.84
2018-06-08T14:56:40.787Z,100738.64
2018-06-08T14:59:10.682Z,100743.28
2018-06-08T15:01:39.819Z,100748.14
2018-06-08T15:04:08.948Z,100750.08
2018-06-08T15:06:38.120Z,100755.64
2018-06-08T15:09:07.627Z,100748.83
2018-06-08T15:11:36.777Z,100749.20
2018-06-08T15:14:05.877Z,100752.13
2018-06-08T15:16:35.001Z,100747.77
2018-06-08T15:19:04.188Z,100746.96
2018-06-08T15:21:33.301Z,100743.47
2018-06-08T15:24:02.737Z,100733.13
2018-06-08T15:26:31.863Z,100723.50
2018-06-08T15:29:01.037Z,100719.86
2018-06-08T15:31:30.148Z,100713.73
2018-06-08T15:33:59.264Z,100714.06
2018-06-08T15:36:28.651Z,100706.89
2018-06-08T15:38:57.788Z,100697.17
2018-06-08T15:41:26.932Z,100702.19
2018-06-08T15:43:56.033Z,100696.70
2018-06-08T15:46:25.165Z,100695.78
2018-06-08T15:48:54.268Z,100695.77
2018-06-08T15:51:23.613Z,100692.32
2018-06-08T15:53:52.737Z,100695.22
2018-06-08T15:56:21.955Z,100686.92
2018-06-08T15:58:51.059Z,100673.52
2018-06-08T16:01:20.184Z,100665.55
2018-06-08T16:03:49.328Z,100661.93
2018-06-08T16:06:18.522Z,100654.22
2018-06-08T16:08:47.637Z,100651.56
2018-06-08T16:11:17.707Z,100649.20
2018-06-08T16:13:46.838Z,100643.40
2018-06-08T16:16:16.012Z,100640.34
2018-06-08T16:18:45.151Z,100644.16
2018-06-08T16:21:14.258Z,100647.37
2018-06-08T16:23:43.385Z,100650.79
2018-06-08T16:26:12.477Z,100649.50
2018-06-08T16:28:41.638Z,100637.58
2018-06-08T16:31:10.868Z,100631.70
2018-06-08T16:33:40.049Z,100638.23
2018-06-08T16:36:10.134Z,100644.36
2018-06-08T16:38:39.314Z,100638.09
2018-06-08T16:41:08.429Z,100636.33
2018-06-08T16:43:37.548Z,100636.33
2018-06-08T16:46:06.650Z,100636.13
2018-06-08T16:48:35.797Z,100636.08
2018-06-08T16:51:04.896Z,100635.77
2018-06-08T16:53:34.086Z,100634.77
2018-06-08T16:56:03.204Z,100638.29
2018-06-08T16:58:32.385Z,100640.90
2018-06-08T17:01:01.496Z,100644.56
2018-06-08T17:03:30.648Z,100638.88
2018-06-08T17:05:59.776Z,100640.19
2018-06-08T17:08:28.875Z,100644.51
2018-06-08T17:10:58.053Z,100631.64
2018-06-08T17:13:27.145Z,100632.09
2018-06-08T17:15:56.260Z,100642.15
2018-06-08T17:18:25.428Z,100639.28
2018-06-08T17:20:54.637Z,100642.50
2018-06-08T17:23:23.816Z,100642.66
2018-06-08T17:25:53.052Z,100640.34
2018-06-08T17:28:22.159Z,100641.24
2018-06-08T17:30:51.321Z,100647.63
2018-06-08T17:33:21.324Z,100648.43
2018-06-08T17:35:50.548Z,100650.33
2018-06-08T17:38:19.704Z,100653.85
2018-06-08T17:40:48.893Z,100657.32
2018-06-08T17:43:17.994Z,100658.23
2018-06-08T17:45:47.089Z,100658.73
2018-06-08T17:48:16.169Z,100658.22
2018-06-08T17:50:45.267Z,100662.66
2018-06-08T17:53:14.395Z,100660.59
2018-06-08T17:55:43.661Z,100662.92
2018-06-08T17:58:12.756Z,100668.87
2018-06-08T18:00:41.880Z,100664.89
2018-06-08T18:03:11.062Z,100666.11
2018-06-08T18:05:40.168Z,100671.80
2018-06-08T18:08:09.272Z,100669.19
2018-06-08T18:10:38.451Z,100664.88
2018-06-08T18:13:07.565Z,100664.77
2018-06-08T18:15:36.649Z,100662.46
2018-06-08T18:18:05.756Z,100662.15
2018-06-08T18:20:34.841Z,100658.13
2018-06-08T18:23:04.043Z,100655.17
2018-06-08T18:25:33.128Z,100656.88
2018-06-08T18:28:02.341Z,100650.90
2018-06-08T18:30:31.445Z,100652.46
2018-06-08T18:33:00.552Z,100651.50
2018-06-08T18:35:29.703Z,100654.17
2018-06-08T18:37:58.796Z,100645.42
2018-06-08T18:40:27.884Z,100649.28
2018-06-08T18:42:57.025Z,100646.07
2018-06-08T18:45:26.125Z,100646.13
2018-06-08T18:47:55.241Z,100645.88
2018-06-08T18:50:24.416Z,100644.11
2018-06-08T18:52:53.523Z,100647.69
2018-06-08T18:55:22.617Z,100646.23
2018-06-08T18:57:51.736Z,100643.97
2018-06-08T19:00:20.866Z,100646.12
2018-06-08T19:02:49.959Z,100647.64
2018-06-08T19:05:19.370Z,100645.27
2018-06-08T19:07:48.484Z,100648.37
2018-06-08T19:10:17.576Z,100654.70
2018-06-08T19:12:46.780Z,100646.63
2018-06-08T19:15:15.869Z,100646.77
2018-06-08T19:17:44.997Z,100645.17
2018-06-08T19:20:14.116Z,100646.81
2018-06-08T19:22:43.305Z,100649.91
2018-06-08T19:25:12.410Z,100647.88
2018-06-08T19:27:41.596Z,100646.79
2018-06-08T19:30:10.717Z,100648.37
2018-06-08T19:32:39.903Z,100655.58
2018-06-08T19:35:09.029Z,100651.34
2018-06-08T19:37:38.136Z,100653.77
2018-06-08T19:40:07.465Z,100653.34
2018-06-08T19:42:36.581Z,100653.80
2018-06-08T19:45:06.005Z,100654.42
2018-06-08T19:47:35.136Z,100663.13
2018-06-08T19:50:04.296Z,100661.83
2018-06-08T19:52:33.449Z,100667.28
2018-06-08T19:55:02.662Z,100663.81
2018-06-08T19:57:31.770Z,100666.60
2018-06-08T20:00:01.005Z,100659.92
2018-06-08T20:02:30.133Z,100667.00
2018-06-08T20:04:59.302Z,100673.20
2018-06-08T20:07:28.412Z,100678.68
2018-06-08T20:09:57.582Z,100686.66
2018-06-08T20:12:26.707Z,100693.31
2018-06-08T20:14:55.880Z,100692.62
2018-06-08T20:17:25.020Z,100691.36
2018-06-08T20:19:54.285Z,100693.07
2018-06-08T20:22:23.416Z,100689.28
2018-06-08T20:24:52.545Z,100699.79
2018-06-08T20:27:21.854Z,100693.11
2018-06-08T20:29:51.001Z,100694.33
2018-06-08T20:32:20.766Z,100690.23
2018-06-08T20:34:49.902Z,100690.11
2018-06-08T20:37:18.996Z,100680.84
2018-06-08T20:39:48.141Z,100690.09
2018-06-08T20:42:17.271Z,100689.60
2018-06-08T20:44:46.436Z,100692.17
2018-06-08T20:47:15.565Z,100693.63
2018-06-08T20:49:44.687Z,100701.66
2018-06-08T20:52:13.830Z,100702.32
2018-06-08T20:54:43.005Z,100703.38
2018-06-08T20:57:17.037Z,100700.48
2018-06-08T20:59:46.185Z,100696.98
2018-06-08T21:02:15.393Z,100697.09
2018-06-08T21:04:44.505Z,100696.04
2018-06-08T21:07:13.641Z,100705.53
2018-06-08T21:09:42.773Z,100702.84
2018-06-08T21:12:11.941Z,100706.70
2018-06-08T21:14:41.058Z,100710.66
2018-06-08T21:17:10.204Z,100697.95
2018-06-08T21:19:39.352Z,100704.80
2018-06-08T21:22:08.521Z,100704.34
2018-06-08T21:24:37.680Z,100704.91
2018-06-08T21:27:06.858Z,100707.59
2018-06-08T21:29:35.933Z,100707.27
2018-06-08T21:32:05.111Z,100709.20
2018-06-08T21:34:34.227Z,100705.79
2018-06-08T21:37:03.445Z,100713.48
2018-06-08T21:39:32.565Z,100709.32
2018-06-08T21:42:01.854Z,100712.91
2018-06-08T21:44:31.018Z,100712.61
2018-06-08T21:47:00.144Z,100713.55
2018-06-08T21:49:29.306Z,100713.98
2018-06-08T21:51:58.574Z,100711.61
2018-06-08T21:54:27.793Z,100711.58
2018-06-08T21:56:56.916Z,100710.77
2018-06-08T21:59:26.078Z,100717.45
2018-06-08T22:01:55.233Z,100719.31
2018-06-08T22:04:24.323Z,100718.16
2018-06-08T22:06:53.484Z,100713.44
2018-06-08T22:09:22.600Z,100715.78
2018-06-08T22:11:51.747Z,100714.73
2018-06-08T22:14:20.859Z,100713.64
2018-06-08T22:16:49.965Z,100704.98
2018-06-08T22:19:19.089Z,100704.68
2018-06-08T22:21:48.191Z,100705.13
2018-06-08T22:24:17.332Z,100701.59
2018-06-08T22:26:46.428Z,100702.08
2018-06-08T22:29:15.543Z,100696.98
2018-06-08T22:31:44.645Z,100698.31
2018-06-08T22:34:13.757Z,100697.36
2018-06-08T22:36:42.880Z,100696.47
2018-06-08T22:39:11.993Z,100695.30
2018-06-08T22:41:41.108Z,100697.56
2018-06-08T22:44:10.224Z,100695.30
2018-06-08T22:46:39.312Z,100692.03
2018-06-08T22:49:08.428Z,100683.92
2018-06-08T22:51:37.516Z,100686.21
2018-06-08T22:54:06.632Z,100691.42
2018-06-08T22:56:35.716Z,100682.35
2018-06-08T22:59:04.830Z,100685.05
2018-06-08T23:01:33.912Z,100688.47
2018-06-08T23:04:03.044Z,100690.56
2018-06-08T23:06:32.143Z,100690.97
2018-06-08T23:09:01.250Z,100688.47
2018-06-08T23:11:30.348Z,100686.94
2018-06-08T23:13:59.457Z,100687.63
2018-06-08T23:16:28.553Z,100691.61
2018-06-08T23:18:57.664Z,100685.48
2018-06-08T23:21:26.752Z,100681.91
2018-06-08T23:23:56.883Z,100684.78
2018-06-08T23:26:25.979Z,100675.23
2018-06-08T23:28:55.068Z,100676.67
2018-06-08T23:31:24.186Z,100673.66
2018-06-08T23:33:53.268Z,100663.43
2018-06-08T23:36:22.379Z,100660.73
2018-06-08T23:38:51.472Z,100665.48
2018-06-08T23:41:20.609Z,100668.05
2018-06-08T23:43:49.735Z,100664.56
2018-06-08T23:46:18.808Z,100667.23
2018-06-08T23:48:47.899Z,100661.66
2018-06-08T23:51:17.004Z,100664.25
2018-06-08T23:53:46.087Z,100660.86
2018-06-08T23:56:15.187Z,100653.61
2018-06-08T23:58:44.272Z,100657.86
